createdAt,value
2023-04-25T00:01:49.263Z,0.95
2023-04-25T00:04:17.140Z,1.00
2023-04-25T00:06:44.726Z,1.35
2023-04-25T00:09:12.234Z,0.90
2023-04-25T00:11:39.950Z,1.27
2023-04-25T00:14:07.777Z,1.37
2023-04-25T00:16:35.929Z,1.08
2023-04-25T00:19:04.034Z,1.00
2023-04-25T00:21:32.657Z,1.20
2023-04-25T00:24:01.160Z,1.40
2023-04-25T00:26:28.854Z,1.15
2023-04-25T00:28:56.747Z,1.25
2023-04-25T00:31:24.340Z,1.25
2023-04-25T00:33:52.361Z,1.00
2023-04-25T00:36:19.920Z,1.05
2023-04-25T00:38:47.619Z,1.30
2023-04-25T00:41:15.570Z,1.27
2023-04-25T00:43:43.486Z,1.30
2023-04-25T00:46:10.885Z,1.83
2023-04-25T00:48:38.550Z,1.60
2023-04-25T00:51:06.123Z,2.05
2023-04-25T00:53:33.836Z,1.95
2023-04-25T00:56:01.765Z,1.90
2023-04-25T00:58:29.398Z,2.30
2023-04-25T01:00:57.560Z,2.53
2023-04-25T01:03:25.547Z,2.47
2023-04-25T01:05:53.374Z,1.92
2023-04-25T01:08:23.211Z,2.40
2023-04-25T01:10:51.192Z,2.35
2023-04-25T01:13:18.617Z,1.85
2023-04-25T01:15:46.164Z,2.20
2023-04-25T01:18:13.863Z,2.25
2023-04-25T01:20:43.003Z,2.15
2023-04-25T01:23:11.113Z,2.12
2023-04-25T01:25:39.628Z,2.03
2023-04-25T01:28:07.399Z,2.10
2023-04-25T01:30:36.272Z,2.33
2023-04-25T01:33:06.235Z,1.75
2023-04-25T01:35:33.645Z,1.92
2023-04-25T01:38:01.385Z,1.95
2023-04-25T01:40:29.257Z,1.75
2023-04-25T01:42:57.950Z,1.95
2023-04-25T01:45:25.507Z,2.42
2023-04-25T01:47:53.208Z,2.00
2023-04-25T01:50:21.291Z,1.90
2023-04-25T01:52:49.166Z,1.80
2023-04-25T01:55:18.355Z,1.60
2023-04-25T01:57:46.915Z,1.70
2023-04-25T02:00:14.618Z,2.25
2023-04-25T02:02:42.150Z,2.00
2023-04-25T02:05:11.639Z,1.70
2023-04-25T02:07:39.843Z,2.33
2023-04-25T02:10:08.242Z,2.10
2023-04-25T02:12:36.839Z,2.00
2023-04-25T02:15:05.572Z,2.10
2023-04-25T02:17:33.496Z,2.28
2023-04-25T02:20:01.260Z,1.75
2023-04-25T02:22:31.198Z,1.98
2023-04-25T02:24:58.942Z,2.17
2023-04-25T02:27:26.644Z,1.90
2023-04-25T02:29:54.307Z,1.70
2023-04-25T02:32:21.707Z,1.92
2023-04-25T02:34:49.434Z,2.20
2023-04-25T02:37:17.213Z,2.00
2023-04-25T02:39:46.501Z,2.17
2023-04-25T02:42:13.937Z,2.00
2023-04-25T02:44:41.664Z,2.05
2023-04-25T02:47:09.090Z,2.30
2023-04-25T02:49:36.655Z,2.40
2023-04-25T02:52:04.428Z,2.22
2023-04-25T02:54:32.040Z,1.83
2023-04-25T02:56:59.948Z,2.05
2023-04-25T02:59:28.089Z,1.95
2023-04-25T03:01:55.932Z,2.10
2023-04-25T03:04:24.914Z,2.20
2023-04-25T03:06:53.415Z,1.85
2023-04-25T03:09:21.503Z,2.22
2023-04-25T03:11:49.232Z,2.15
2023-04-25T03:14:17.063Z,2.40
2023-04-25T03:16:46.124Z,2.10
2023-04-25T03:19:13.608Z,2.20
2023-04-25T03:21:41.277Z,2.30
2023-04-25T03:24:08.945Z,2.45
2023-04-25T03:26:36.310Z,2.12
2023-04-25T03:29:04.108Z,1.85
2023-04-25T03:31:32.080Z,2.53
2023-04-25T03:34:00.139Z,2.35
2023-04-25T03:36:27.854Z,1.87
2023-04-25T03:38:55.588Z,2.33
2023-04-25T03:41:23.318Z,1.87
2023-04-25T03:43:51.581Z,2.35
2023-04-25T03:46:19.354Z,2.37
2023-04-25T03:48:47.226Z,2.08
2023-04-25T03:51:16.752Z,2.15
2023-04-25T03:53:44.409Z,2.28
2023-04-25T03:56:15.391Z,1.98
2023-04-25T03:58:43.172Z,2.22
2023-04-25T04:01:11.236Z,3.17
2023-04-25T04:03:39.362Z,2.47
2023-04-25T04:06:07.910Z,2.00
2023-04-25T04:08:36.423Z,1.90
2023-04-25T04:11:04.277Z,2.37
2023-04-25T04:13:31.768Z,2.40
2023-04-25T04:15:59.470Z,2.40
2023-04-25T04:18:27.266Z,2.20
2023-04-25T04:20:56.376Z,2.17
2023-04-25T04:23:23.959Z,2.15
2023-04-25T04:25:53.364Z,2.47
2023-04-25T04:28:21.555Z,2.35
2023-04-25T04:30:52.068Z,1.90
2023-04-25T04:33:20.638Z,2.22
2023-04-25T04:35:49.527Z,2.33
2023-04-25T04:38:17.587Z,2.50
2023-04-25T04:40:45.323Z,2.08
2023-04-25T04:43:12.824Z,2.37
2023-04-25T04:45:41.334Z,2.28
2023-04-25T04:48:09.578Z,2.58
2023-04-25T04:50:37.256Z,2.90
2023-04-25T04:53:05.289Z,2.65
2023-04-25T04:55:33.073Z,2.78
2023-04-25T04:58:01.599Z,3.50
2023-04-25T05:00:30.495Z,3.03
2023-04-25T05:02:58.735Z,2.90
2023-04-25T05:05:27.183Z,3.22
2023-04-25T05:07:54.731Z,3.50
2023-04-25T05:10:22.530Z,3.28
2023-04-25T05:12:54.152Z,3.78
2023-04-25T05:15:22.144Z,3.00
2023-04-25T05:17:51.017Z,3.65
2023-04-25T05:20:20.092Z,3.35
2023-04-25T05:22:49.524Z,3.37
2023-04-25T05:25:17.047Z,3.47
2023-04-25T05:27:46.086Z,3.75
2023-04-25T05:30:14.948Z,3.90
2023-04-25T05:32:42.509Z,4.35
2023-04-25T05:35:10.487Z,3.85
2023-04-25T05:37:38.656Z,3.62
2023-04-25T05:40:07.899Z,3.70
2023-04-25T05:42:35.822Z,3.65
2023-04-25T05:45:04.041Z,3.75
2023-04-25T05:47:32.548Z,3.85
2023-04-25T05:50:00.363Z,4.25
2023-04-25T05:52:28.477Z,3.97
2023-04-25T05:54:56.941Z,3.75
2023-04-25T05:57:26.230Z,3.45
2023-04-25T05:59:54.383Z,4.12
2023-04-25T06:02:22.766Z,4.00
2023-04-25T06:04:52.288Z,3.90
2023-04-25T06:07:21.233Z,4.05
2023-04-25T06:09:48.732Z,4.03
2023-04-25T06:12:16.474Z,3.87
2023-04-25T06:14:44.010Z,4.30
2023-04-25T06:17:11.561Z,4.12
2023-04-25T06:19:39.296Z,3.42
2023-04-25T06:22:08.234Z,3.67
2023-04-25T06:24:36.364Z,3.70
2023-04-25T06:27:04.870Z,3.85
2023-04-25T06:29:32.250Z,3.58
2023-04-25T06:31:59.620Z,3.30
2023-04-25T06:34:27.372Z,3.50
2023-04-25T06:36:54.833Z,3.37
2023-04-25T06:39:24.349Z,3.35
2023-04-25T06:41:52.246Z,3.55
2023-04-25T06:44:30.454Z,3.62
2023-04-25T06:46:58.900Z,3.37
2023-04-25T06:49:26.593Z,3.40
2023-04-25T06:51:54.360Z,3.55
2023-04-25T06:54:22.034Z,3.42
2023-04-25T06:56:54.669Z,3.50
2023-04-25T06:59:22.777Z,3.72
2023-04-25T07:01:51.306Z,3.53
2023-04-25T07:04:19.074Z,3.80
2023-04-25T07:06:49.043Z,3.45
2023-04-25T07:09:17.648Z,3.70
2023-04-25T07:11:46.382Z,3.65
2023-04-25T07:14:14.312Z,3.30
2023-04-25T07:16:41.861Z,3.37
2023-04-25T07:19:09.490Z,3.17
2023-04-25T07:21:37.428Z,3.28
2023-04-25T07:24:05.304Z,3.17
2023-04-25T07:26:33.172Z,3.30
2023-04-25T07:29:02.871Z,3.25
2023-04-25T07:31:30.367Z,2.97
2023-04-25T07:34:00.625Z,2.97
2023-04-25T07:36:29.856Z,2.90
2023-04-25T07:38:57.291Z,3.62
2023-04-25T07:41:24.783Z,3.35
2023-04-25T07:43:53.010Z,3.70
2023-04-25T07:46:20.960Z,3.65
2023-04-25T07:48:49.023Z,3.95
2023-04-25T07:51:17.046Z,3.03
2023-04-25T07:53:44.648Z,2.83
2023-04-25T07:56:12.625Z,2.78
2023-04-25T07:58:40.745Z,2.85
2023-04-25T08:01:08.940Z,3.80
2023-04-25T08:03:37.644Z,3.30
2023-04-25T08:06:08.178Z,3.62
2023-04-25T08:11:07.182Z,3.10
2023-04-25T08:13:34.590Z,3.12
2023-04-25T08:16:02.473Z,3.47
2023-04-25T08:18:30.346Z,2.95
2023-04-25T08:20:58.269Z,3.50
2023-04-25T08:23:26.376Z,2.97
2023-04-25T08:25:53.960Z,3.08
2023-04-25T08:28:22.250Z,3.62
2023-04-25T08:30:50.070Z,3.30
2023-04-25T08:33:18.486Z,4.20
2023-04-25T08:35:46.930Z,3.40
2023-04-25T08:38:14.975Z,4.03
2023-04-25T08:40:45.657Z,3.50
2023-04-25T08:43:15.712Z,3.62
2023-04-25T08:45:43.711Z,3.75
2023-04-25T08:48:13.422Z,2.95
2023-04-25T08:50:55.438Z,3.28
2023-04-25T08:53:29.079Z,3.62
2023-04-25T08:55:59.932Z,2.90
2023-04-25T08:58:28.834Z,4.07
2023-04-25T09:00:56.276Z,2.90
2023-04-25T09:03:24.432Z,3.10
2023-04-25T09:05:52.483Z,3.47
2023-04-25T09:08:20.256Z,3.37
2023-04-25T09:10:48.362Z,2.90
2023-04-25T09:13:25.800Z,2.92
2023-04-25T09:15:57.159Z,2.75
2023-04-25T09:18:30.833Z,3.10
2023-04-25T09:21:13.735Z,2.70
2023-04-25T09:23:45.888Z,3.10
2023-04-25T09:26:19.048Z,3.08
2023-04-25T09:28:48.910Z,3.08
2023-04-25T09:31:25.258Z,2.55
2023-04-25T09:34:03.314Z,2.95
2023-04-25T09:36:35.618Z,2.47
2023-04-25T09:39:16.196Z,2.60
2023-04-25T09:41:44.047Z,2.35
2023-04-25T09:44:14.135Z,2.53
2023-04-25T09:46:43.146Z,2.50
2023-04-25T09:49:12.310Z,2.35
2023-04-25T09:51:40.723Z,2.28
2023-04-25T09:54:08.244Z,2.25
2023-04-25T09:56:38.520Z,2.10
2023-04-25T09:59:07.593Z,1.80
2023-04-25T10:01:36.126Z,1.80
2023-04-25T10:04:05.911Z,1.95
2023-04-25T10:06:35.704Z,1.60
2023-04-25T10:09:04.866Z,1.98
2023-04-25T10:11:33.646Z,1.55
2023-04-25T10:14:01.795Z,1.65
2023-04-25T10:16:29.919Z,1.10
2023-04-25T10:18:57.764Z,1.30
2023-04-25T10:21:25.408Z,0.98
2023-04-25T10:23:53.165Z,0.90
2023-04-25T10:26:21.178Z,1.10
2023-04-25T10:28:59.995Z,1.40
2023-04-25T10:31:28.267Z,0.90
2023-04-25T10:33:55.904Z,0.65
2023-04-25T10:36:24.757Z,0.70
2023-04-25T10:38:52.609Z,0.90
2023-04-25T10:41:21.432Z,0.70
2023-04-25T10:43:50.073Z,0.75
2023-04-25T10:46:20.259Z,0.57
2023-04-25T10:48:52.528Z,0.45
2023-04-25T10:51:24.357Z,0.57
2023-04-25T10:53:59.794Z,0.35
2023-04-25T10:56:28.594Z,0.40
2023-04-25T10:59:13.228Z,0.32
2023-04-25T11:01:43.085Z,0.40
2023-04-25T11:04:30.062Z,0.50
2023-04-25T11:07:09.263Z,0.50
2023-04-25T11:09:39.871Z,0.80
2023-04-25T11:12:09.402Z,0.65
2023-04-25T11:14:37.235Z,0.70
2023-04-25T11:17:04.805Z,0.60
2023-04-25T11:19:32.905Z,0.50
2023-04-25T11:22:01.243Z,0.60
2023-04-25T11:24:29.808Z,0.68
2023-04-25T11:26:59.290Z,0.43
2023-04-25T11:29:34.553Z,0.30
2023-04-25T11:32:03.335Z,0.47
2023-04-25T11:34:32.280Z,0.68
2023-04-25T11:37:00.839Z,0.40
2023-04-25T11:39:29.107Z,0.60
2023-04-25T11:41:56.828Z,0.60
2023-04-25T11:44:24.907Z,0.50
2023-04-25T11:46:52.608Z,0.62
2023-04-25T11:49:20.039Z,0.68
2023-04-25T11:51:49.297Z,0.77
2023-04-25T11:54:17.448Z,0.82
2023-04-25T11:56:46.352Z,0.70
2023-04-25T11:59:14.315Z,0.90
2023-04-25T12:01:43.077Z,0.82
2023-04-25T12:04:18.889Z,0.80
2023-04-25T12:06:49.133Z,0.70
2023-04-25T12:09:20.373Z,0.82
2023-04-25T12:11:54.486Z,0.93
2023-04-25T12:14:24.844Z,0.65
2023-04-25T12:16:52.749Z,0.80
2023-04-25T12:19:21.161Z,0.60
2023-04-25T12:21:58.150Z,0.80
2023-04-25T12:24:28.425Z,0.90
2023-04-25T12:27:06.595Z,0.70
2023-04-25T12:29:48.675Z,0.75
2023-04-25T12:32:17.985Z,0.82
2023-04-25T12:34:46.077Z,1.00
2023-04-25T12:37:14.168Z,0.70
2023-04-25T12:39:41.881Z,1.08
2023-04-25T12:42:12.478Z,1.00
2023-04-25T12:44:40.294Z,0.60
2023-04-25T12:47:08.366Z,1.00
2023-04-25T12:49:35.902Z,1.00
2023-04-25T12:52:03.660Z,0.77
2023-04-25T12:54:32.184Z,0.90
2023-04-25T12:57:00.170Z,0.85
2023-04-25T12:59:27.919Z,0.93
2023-04-25T13:01:55.624Z,0.70
2023-04-25T13:04:23.071Z,0.80
2023-04-25T13:06:50.618Z,0.62
2023-04-25T13:09:18.408Z,0.88
2023-04-25T13:11:46.884Z,1.10
2023-04-25T13:14:14.310Z,1.00
2023-04-25T13:16:42.401Z,0.90
2023-04-25T13:19:12.402Z,0.82
2023-04-25T13:21:40.232Z,0.88
2023-04-25T13:24:08.069Z,0.80
2023-04-25T13:26:35.838Z,0.80
2023-04-25T13:29:04.684Z,1.00
2023-04-25T13:31:32.686Z,1.00
2023-04-25T13:34:00.301Z,0.90
2023-04-25T13:36:28.924Z,0.70
2023-04-25T13:38:56.600Z,0.90
2023-04-25T13:41:24.258Z,1.20
2023-04-25T13:43:52.503Z,0.77
2023-04-25T13:46:40.906Z,1.00
2023-04-25T13:49:12.833Z,1.00
2023-04-25T13:51:41.830Z,1.60
2023-04-25T13:54:09.254Z,0.85
2023-04-25T13:56:36.788Z,1.05
2023-04-25T13:59:04.579Z,1.70
2023-04-25T14:01:35.298Z,0.90
2023-04-25T14:04:05.098Z,0.95
2023-04-25T14:06:33.026Z,1.17
2023-04-25T14:09:02.047Z,1.15
2023-04-25T14:11:29.875Z,1.00
2023-04-25T14:13:57.307Z,1.30
2023-04-25T14:16:24.802Z,1.25
2023-04-25T14:18:52.639Z,1.10
2023-04-25T14:21:21.371Z,0.90
2023-04-25T14:23:49.158Z,1.15
2023-04-25T14:26:17.347Z,1.15
2023-04-25T14:28:44.807Z,1.48
2023-04-25T14:31:12.375Z,1.27
2023-04-25T14:33:43.133Z,1.25
2023-04-25T14:36:12.017Z,1.40
2023-04-25T14:38:39.764Z,1.48
2023-04-25T14:41:07.231Z,1.00
2023-04-25T14:43:43.581Z,1.15
2023-04-25T14:46:12.072Z,1.10
2023-04-25T14:48:40.076Z,1.10
2023-04-25T14:51:07.951Z,1.10
2023-04-25T14:53:35.756Z,2.25
2023-04-25T14:56:03.485Z,1.12
2023-04-25T14:58:32.485Z,1.20
2023-04-25T15:01:01.018Z,1.20
2023-04-25T15:03:28.527Z,1.27
2023-04-25T15:05:56.316Z,1.20
2023-04-25T15:08:23.956Z,1.10
2023-04-25T15:10:51.561Z,1.17
2023-04-25T15:13:20.259Z,1.40
2023-04-25T15:15:52.093Z,1.33
2023-04-25T15:18:23.697Z,0.90
2023-04-25T15:20:52.710Z,1.50
2023-04-25T15:23:20.885Z,1.50
2023-04-25T15:25:48.538Z,1.40
2023-04-25T15:28:16.807Z,1.20
2023-04-25T15:30:44.693Z,1.23
2023-04-25T15:33:12.237Z,1.02
2023-04-25T15:35:40.345Z,1.30
2023-04-25T15:38:08.055Z,1.20
2023-04-25T15:40:35.432Z,1.15
2023-04-25T15:43:03.377Z,1.80
2023-04-25T15:45:32.294Z,1.62
2023-04-25T15:47:59.793Z,1.75
2023-04-25T15:50:27.533Z,1.92
2023-04-25T15:52:54.961Z,1.30
2023-04-25T15:55:23.271Z,1.30
2023-04-25T15:57:51.336Z,1.30
2023-04-25T16:00:19.350Z,1.00
2023-04-25T16:02:48.562Z,1.00
2023-04-25T16:05:17.353Z,1.17
2023-04-25T16:07:45.470Z,1.02
2023-04-25T16:10:13.738Z,0.95
2023-04-25T16:12:41.243Z,1.10
2023-04-25T16:15:09.016Z,1.75
2023-04-25T16:17:36.825Z,1.62
2023-04-25T16:20:09.984Z,1.50
2023-04-25T16:22:41.593Z,2.22
2023-04-25T16:25:09.695Z,1.50
2023-04-25T16:27:39.940Z,1.70
2023-04-25T16:30:08.759Z,1.95
2023-04-25T16:32:36.703Z,1.70
2023-04-25T16:35:04.344Z,1.80
2023-04-25T16:37:32.132Z,1.90
2023-04-25T16:39:59.685Z,1.83
2023-04-25T16:42:27.130Z,2.08
2023-04-25T16:44:54.984Z,2.00
2023-04-25T16:47:22.447Z,2.20
2023-04-25T16:49:50.816Z,2.45
2023-04-25T16:52:21.170Z,1.98
2023-04-25T16:54:48.552Z,1.80
2023-04-25T16:57:16.503Z,1.80
2023-04-25T16:59:44.577Z,1.80
2023-04-25T17:02:13.047Z,1.70
2023-04-25T17:04:41.127Z,1.50
2023-04-25T17:07:09.035Z,1.87
2023-04-25T17:09:36.696Z,2.30
2023-04-25T17:12:04.746Z,1.77
2023-04-25T17:14:35.382Z,1.62
2023-04-25T17:17:03.656Z,2.17
2023-04-25T17:19:31.689Z,2.10
2023-04-25T17:21:59.459Z,1.90
2023-04-25T17:24:26.933Z,1.73
2023-04-25T17:26:54.604Z,2.30
2023-04-25T17:29:23.782Z,2.08
2023-04-25T17:31:51.287Z,2.58
2023-04-25T17:34:18.714Z,2.35
2023-04-25T17:36:46.552Z,2.62
2023-04-25T17:39:17.143Z,2.80
2023-04-25T17:41:45.054Z,2.75
2023-04-25T17:44:13.138Z,2.60
2023-04-25T17:46:40.735Z,2.42
2023-04-25T17:49:08.233Z,2.35
2023-04-25T17:51:36.030Z,2.40
2023-04-25T17:54:10.065Z,2.37
2023-04-25T17:56:39.615Z,2.60
2023-04-25T17:59:07.160Z,2.22
2023-04-25T18:01:48.312Z,2.75
2023-04-25T18:04:18.759Z,3.15
2023-04-25T18:06:46.263Z,2.72
2023-04-25T18:09:17.574Z,2.87
2023-04-25T18:11:45.601Z,2.35
2023-04-25T18:14:15.152Z,2.28
2023-04-25T18:16:48.789Z,2.10
2023-04-25T18:19:21.191Z,2.67
2023-04-25T18:24:17.927Z,3.35
2023-04-25T18:26:45.970Z,3.45
2023-04-25T18:29:29.104Z,3.70
2023-04-25T18:32:00.823Z,3.65
2023-04-25T18:34:28.280Z,3.70
2023-04-25T18:36:56.502Z,4.03
2023-04-25T18:39:25.153Z,3.75
2023-04-25T18:41:59.306Z,3.55
2023-04-25T18:44:33.969Z,4.15
2023-04-25T18:47:03.989Z,3.12
2023-04-25T18:49:33.398Z,3.58
2023-04-25T18:52:00.952Z,3.35
2023-04-25T18:54:28.462Z,2.90
2023-04-25T18:57:00.679Z,2.80
2023-04-25T18:59:33.156Z,2.35
2023-04-25T19:02:02.039Z,2.35
2023-04-25T19:04:29.714Z,2.60
2023-04-25T19:06:59.587Z,2.30
2023-04-25T19:09:27.370Z,2.42
2023-04-25T19:11:54.869Z,2.72
2023-04-25T19:14:22.275Z,2.90
2023-04-25T19:16:50.062Z,2.90
2023-04-25T19:19:17.555Z,3.20
2023-04-25T19:21:45.023Z,2.62
2023-04-25T19:24:12.735Z,2.70
2023-04-25T19:26:40.462Z,2.90
2023-04-25T19:29:10.574Z,2.30
2023-04-25T19:31:39.406Z,3.10
2023-04-25T19:34:07.749Z,2.90
2023-04-25T19:36:38.429Z,3.17
2023-04-25T19:39:07.521Z,3.72
2023-04-25T19:41:36.702Z,3.47
2023-04-25T19:44:06.716Z,3.62
2023-04-25T19:46:35.646Z,3.00
2023-04-25T19:49:07.054Z,3.58
2023-04-25T19:51:36.178Z,3.40
2023-04-25T19:54:04.238Z,2.78
2023-04-25T19:56:31.708Z,3.03
2023-04-25T19:58:59.547Z,3.05
2023-04-25T20:01:27.208Z,3.28
2023-04-25T20:03:56.135Z,4.20
2023-04-25T20:06:23.864Z,4.15
2023-04-25T20:08:54.599Z,5.03
2023-04-25T20:11:22.435Z,4.43
2023-04-25T20:13:50.212Z,4.35
2023-04-25T20:16:20.238Z,4.40
2023-04-25T20:18:48.930Z,3.40
2023-04-25T20:21:17.312Z,3.60
2023-04-25T20:23:45.386Z,3.95
2023-04-25T20:26:13.099Z,3.85
2023-04-25T20:28:41.898Z,4.00
2023-04-25T20:31:10.746Z,3.97
2023-04-25T20:33:38.705Z,4.22
2023-04-25T20:36:06.188Z,3.92
2023-04-25T20:38:33.660Z,3.85
2023-04-25T20:41:01.332Z,3.78
2023-04-25T20:43:29.187Z,4.40
2023-04-25T20:45:57.310Z,3.72
2023-04-25T20:48:25.018Z,3.92
2023-04-25T20:50:52.975Z,4.40
2023-04-25T20:53:20.398Z,4.25
2023-04-25T20:55:48.196Z,3.95
2023-04-25T20:58:16.303Z,4.00
2023-04-25T21:00:43.878Z,3.87
2023-04-25T21:03:13.220Z,3.72
2023-04-25T21:05:40.974Z,3.90
2023-04-25T21:08:08.541Z,3.42
2023-04-25T21:10:37.502Z,4.00
2023-04-25T21:13:05.831Z,3.90
2023-04-25T21:15:34.655Z,4.07
2023-04-25T21:18:05.358Z,3.70
2023-04-25T21:20:32.962Z,3.12
2023-04-25T21:23:00.593Z,3.62
2023-04-25T21:25:31.592Z,3.42
2023-04-25T21:28:00.007Z,3.30
2023-04-25T21:30:28.000Z,3.75
2023-04-25T21:32:56.403Z,3.40
2023-04-25T21:35:24.327Z,3.30
2023-04-25T21:37:52.556Z,3.25
2023-04-25T21:40:20.054Z,3.40
2023-04-25T21:42:50.091Z,3.47
2023-04-25T21:45:18.461Z,2.70
2023-04-25T21:47:46.905Z,3.33
2023-04-25T21:50:14.908Z,3.00
2023-04-25T21:52:42.761Z,3.33
2023-04-25T21:55:11.589Z,2.80
2023-04-25T21:57:39.124Z,2.85
2023-04-25T22:00:20.122Z,3.33
2023-04-25T22:02:48.362Z,2.90
2023-04-25T22:05:16.606Z,2.87
2023-04-25T22:07:44.055Z,3.60
2023-04-25T22:10:11.796Z,2.78
2023-04-25T22:12:39.394Z,3.30
2023-04-25T22:15:08.909Z,3.22
2023-04-25T22:17:36.944Z,3.78
2023-04-25T22:20:14.364Z,3.60
2023-04-25T22:22:42.085Z,3.22
2023-04-25T22:25:10.145Z,3.00
2023-04-25T22:27:40.776Z,3.20
2023-04-25T22:30:09.513Z,3.30
2023-04-25T22:32:37.079Z,3.08
2023-04-25T22:35:05.280Z,3.28
2023-04-25T22:37:33.052Z,3.67
2023-04-25T22:40:03.724Z,3.58
2023-04-25T22:42:39.839Z,3.42
2023-04-25T22:45:08.207Z,3.30
2023-04-25T22:47:37.140Z,3.42
2023-04-25T22:50:12.989Z,3.70
2023-04-25T22:52:42.370Z,3.58
2023-04-25T22:55:12.428Z,3.85
2023-04-25T22:57:40.510Z,3.80
2023-04-25T23:00:29.083Z,3.60
2023-04-25T23:02:57.054Z,3.70
2023-04-25T23:05:24.799Z,3.85
2023-04-25T23:07:52.316Z,3.83
2023-04-25T23:10:19.876Z,4.05
2023-04-25T23:12:47.784Z,4.15
2023-04-25T23:15:15.272Z,3.83
2023-04-25T23:17:43.416Z,3.75
2023-04-25T23:20:12.194Z,4.07
2023-04-25T23:22:39.740Z,4.18
2023-04-25T23:25:08.152Z,4.00
2023-04-25T23:27:35.870Z,3.95
2023-04-25T23:30:03.508Z,3.85
2023-04-25T23:32:32.350Z,3.65
2023-04-25T23:35:00.172Z,3.70
2023-04-25T23:37:27.644Z,4.25
2023-04-25T23:39:55.610Z,4.05
2023-04-25T23:42:23.289Z,4.32
2023-04-25T23:44:50.702Z,4.53
2023-04-25T23:47:19.016Z,4.50
2023-04-25T23:49:46.949Z,4.43
2023-04-25T23:52:14.408Z,4.40
2023-04-25T23:54:42.411Z,3.90
2023-04-25T23:57:12.035Z,5.00
2023-04-25T23:59:39.473Z,4.72
